Portada
METAR-TAF:

METAR-TAF

Aeropuertos :

Aeropuerto Internacional de Dakar-Yoff/Léopold Sédar Senghor

Dakar, Senegal

latitud: 14-44N, longitud: 017-30W, altitud: 27 m

Observación

El informe se hizo hace 1 hora y 5 minutos, a las 15:00 UTC
Viento 10 kt del norte
Temperatura 30°C
Humedad 75%
Presión 1012 hPa
Visibilidad 10 km o más
Escasas nubes a una altura de 1300 ft

METAR: GOOY 171500Z 36010KT 9999 FEW013 30/25 Q1012

Hora: 16:05 (16:05 UTC)

Pronóstico

El informe se hizo hace 4 horas y 35 minutos, a las 11:30 UTC
Pronóstico válido del 17 a las 12 UTC al 18 a las 18 UTC
Viento 10 kt del norte
Visibilidad 10 km o más
Nubes dispersas a una altura de 1300 ft

TAF: GOOY 171130Z 1712/1818 36010KT 9999 SCT013

Observaciones y pronósticos meteorológicos de más de 4000 aeropuertos (mensajes METAR y TAF).

Los puntos amarillos y rojos representan las estaciones disponibles.

Ponga el ratón en el punto deseado para ver el nombre de la estación.

Haga clic para ver las observaciones y los pronósticos meteorológicos.

Para cambiar el mapa : haga clic en los botones verdes con una cruz de color negro para hacer un zoom, en el botón verde con un guión para alejar o en las flechas verdes para mapas adyacentes.


METAR-TAF: